Latest Weather Observations for Whyalla

IDS60801

Issued at 7:01 am CST Tuesday 22 August 2017 (issued every 30 minutes, with the page automatically refreshed every 10 minutes)

About weather observations | Map of weather stations | Latest weather observations for SA | Other Formats
Station Details ID: 018120 Name: WHYALLA AERO Lat: -33.05 Lon: 137.52 Height: 9.3 m
Data from the previous 72 hours. | See also: Recent months at Whyalla
Date/Time
CST
Temp
°C
App
Temp
°C
Dew
Point
°C
Rel
Hum
%
Delta-T
°C
Wind Press
QNH
hPa
Press
MSL
hPa
Rain since
9am
mm
Dir  Spd
km/h
Gust
km/h
Spd
kts
Gust
kts
22/07:00am 11.3 8.2 7.4 77 1.9 WSW 13 17 7 9 1022.1 1022.1 0.0
22/06:30am 11.1 8.5 7.6 79 1.7 WSW 11 13 6 7 1021.9 1021.9 0.0
22/06:00am 11.2 8.7 8.1 81 1.5 WSW 11 13 6 7 1021.6 1021.6 0.0
22/05:30am 11.2 8.8 8.6 84 1.3 WSW 11 15 6 8 1021.3 1021.3 0.0
22/05:00am 11.2 8.5 8.9 86 1.1 W 13 15 7 8 1021.0 1021.0 0.0
22/04:30am 11.0 8.8 9.3 89 0.8 W 11 17 6 9 1020.7 1020.7 0.0
22/04:00am 11.2 9.3 8.9 86 1.1 WSW 9 11 5 6 1020.5 1020.5 0.0
22/03:30am 11.1 8.9 9.2 88 0.9 WSW 11 17 6 9 1020.2 1020.2 0.0
22/03:00am 11.0 8.4 9.4 90 0.8 SW 13 15 7 8 1020.0 1020.0 0.0
22/02:30am 11.1 8.6 9.7 91 0.7 SW 13 20 7 11 1020.1 1020.1 0.0
22/02:00am 10.3 8.6 9.7 96 0.3 WSW 9 15 5 8 1020.1 1020.1 0.0
22/01:30am 10.1 9.6 9.5 96 0.3 SSE 2 6 1 3 1020.2 1020.2 0.0
22/01:00am 9.2 7.1 8.3 94 0.4 SW 9 11 5 6 1020.0 1020.0 0.0
22/12:30am 10.2 8.8 9.4 95 0.4 SW 7 9 4 5 1020.1 1020.1 0.0
22/12:00am 10.3 8.5 9.4 94 0.4 WSW 9 11 5 6 1020.2 1020.2 0.0
 
Date/Time
CST
Temp
°C
App
Temp
°C
Dew
Point
°C
Rel
Hum
%
Delta-T
°C
Wind Press
QNH
hPa
Press
MSL
hPa
Rain since
9am
mm
Dir  Spd
km/h
Gust
km/h
Spd
kts
Gust
kts
21/11:30pm 10.1 8.2 9.2 94 0.4 WSW 9 13 5 7 1020.1 1020.1 0.0
21/11:00pm 10.4 7.8 9.3 93 0.5 WSW 13 17 7 9 1020.0 1020.0 0.0
21/10:30pm 10.1 7.5 9.3 95 0.4 WSW 13 17 7 9 1019.8 1019.8 0.0
21/10:00pm 9.8 7.1 8.9 94 0.4 WSW 13 19 7 10 1019.7 1019.7 0.0
21/09:30pm 9.8 7.1 9.0 95 0.4 WSW 13 19 7 10 1019.5 1019.5 0.0
21/09:00pm 9.9 6.9 9.1 95 0.4 WSW 15 17 8 9 1019.2 1019.2 0.0
21/08:30pm 10.1 7.8 8.9 92 0.6 W 11 11 6 6 1018.9 1018.9 0.0
21/08:00pm 11.5 9.4 9.8 89 0.9 WSW 11 17 6 9 1018.6 1018.6 0.0
21/07:30pm 12.1 9.8 10.3 89 0.9 SW 13 19 7 10 1018.1 1018.1 0.0
21/07:00pm 12.3 9.3 10.7 90 0.8 SSW 17 20 9 11 1017.7 1017.7 0.0
21/06:30pm 12.5 9.5 10.6 88 1.0 SSW 17 20 9 11 1017.1 1017.1 0.0
21/06:00pm 12.9 8.9 10.4 85 1.3 S 22 30 12 16 1016.5 1016.5 0.0
21/05:30pm 13.5 9.2 10.7 83 1.5 S 24 32 13 17 1015.9 1015.9 0.0
21/05:00pm 13.8 8.7 10.6 81 1.7 S 28 41 15 22 1015.2 1015.2 0.0
21/04:30pm 14.5 9.4 10.5 77 2.1 S 28 43 15 23 1014.6 1014.6 0.0
21/04:00pm 15.0 9.6 11.0 77 2.1 S 30 43 16 23 1014.2 1014.2 0.0
21/03:30pm 15.6 10.7 11.2 75 2.4 S 28 37 15 20 1013.6 1013.6 0.0
21/03:00pm 16.6 10.2 10.7 68 3.1 SSW 35 48 19 26 1013.2 1013.2 0.0
21/02:51pm 17.0 10.7 8.9 59 4.2 SSW 32 50 17 27 1013.1 1013.1 0.0
21/02:30pm 17.5 10.3 9.2 58 4.3 SSW 37 52 20 28 1012.7 1012.7 0.0
21/02:12pm 17.0 9.7 8.7 58 4.3 SSW 37 56 20 30 1012.5 1012.5 0.0
21/02:00pm 17.1 9.4 8.5 57 4.4 SSW 39 50 21 27 1012.3 1012.3 0.0
21/01:30pm 16.6 11.0 10.0 65 3.5 SW 30 44 16 24 1012.0 1012.0 0.0
21/01:00pm 16.5 10.6 10.4 67 3.2 WSW 32 46 17 25 1011.8 1011.8 0.0
21/12:34pm 15.2 10.4 11.6 79 1.9 SW 28 48 15 26 1011.6 1011.6 0.0
21/12:30pm 15.4 10.9 11.4 77 2.1 SW 26 39 14 21 1011.6 1011.6 0.0
21/12:04pm 16.4 11.3 10.5 68 3.1 SW 28 46 15 25 1011.2 1011.2 0.0
21/12:00pm 16.5 12.1 10.4 67 3.2 WSW 24 35 13 19 1011.2 1011.2 0.0
21/11:30am 14.8 11.9 12.8 88 1.1 WNW 20 28 11 15 1011.1 1011.1 0.0
21/11:03am 14.4 11.5 12.8 90 0.9 NW 20 26 11 14 1011.0 1011.0 0.0
21/11:00am 14.3 11.0 12.9 91 0.8 NW 22 26 12 14 1011.0 1011.0 0.0
21/10:46am 13.8 10.2 11.7 87 1.1 NW 22 33 12 18 1010.9 1010.9 0.0
21/10:30am 14.0 10.4 11.7 86 1.2 NW 22 30 12 16 1010.8 1010.8 0.0
21/10:00am 13.6 9.5 11.5 87 1.1 NW 24 32 13 17 1010.6 1010.6 0.0
21/09:47am 12.9 9.7 11.3 90 0.8 NNW 19 28 10 15 1010.5 1010.5 0.0
21/09:30am 12.0 8.6 11.1 94 0.5 NNW 20 32 11 17 1010.6 1010.6 0.0
21/09:21am 12.1 8.2 10.8 92 0.7 NNW 22 30 12 16 1010.5 1010.5 0.0
21/09:00am 12.2 7.8 10.4 89 0.9 NNW 24 33 13 18 1010.2 1010.2 2.6
21/08:30am 11.6 7.5 10.0 90 0.8 NNW 22 28 12 15 1009.8 1009.8 2.6
21/08:00am 10.4 7.3 9.0 91 0.7 N 15 22 8 12 1009.7 1009.7 2.6
21/07:30am 10.2 5.3 8.5 89 0.8 NNW 24 32 13 17 1009.3 1009.3 2.4
21/07:28am 10.3 5.4 8.6 89 0.8 NNW 24 32 13 17 1009.3 1009.3 2.4
21/07:00am 11.1 5.5 7.2 77 1.9 NNW 26 33 14 18 1008.6 1008.6 2.4
21/06:30am 10.0 3.7 5.6 74 2.0 NNW 28 35 15 19 1008.5 1008.5 2.4
21/06:00am 9.9 3.7 4.5 69 2.4 NNW 26 32 14 17 1008.3 1008.3 2.4
21/05:30am 9.8 5.3 4.0 67 2.6 NNW 17 26 9 14 1008.3 1008.3 2.4
21/05:00am 9.0 4.2 2.8 65 2.6 N 17 20 9 11 1008.2 1008.2 2.4
21/04:30am 8.7 3.8 2.1 63 2.8 N 17 20 9 11 1008.3 1008.3 2.4
21/04:00am 8.8 3.2 1.5 60 3.0 NNW 20 28 11 15 1008.4 1008.4 2.4
21/03:30am 10.0 1.8 0.6 52 3.8 N 33 44 18 24 1007.6 1007.6 2.4
21/03:00am 9.6 1.7 0.8 54 3.6 N 32 41 17 22 1007.9 1007.9 2.4
21/02:30am 9.5 3.6 1.7 58 3.3 NNW 22 30 12 16 1008.5 1008.5 2.4
21/02:00am 9.1 3.6 2.0 61 3.0 NNW 20 30 11 16 1009.0 1009.0 2.4
21/01:30am 9.0 4.9 2.1 62 2.9 NNW 13 17 7 9 1009.3 1009.3 2.4
21/01:00am 9.5 5.8 2.1 60 3.1 NNW 11 17 6 9 1009.6 1009.6 2.4
21/12:30am 9.2 5.5 2.3 62 2.9 NW 11 13 6 7 1010.3 1010.3 2.4
21/12:00am 10.6 5.6 1.2 52 3.9 N 17 28 9 15 1010.7 1010.7 2.4
 
Date/Time
CST
Temp
°C
App
Temp
°C
Dew
Point
°C
Rel
Hum
%
Delta-T
°C
Wind Press
QNH
hPa
Press
MSL
hPa
Rain since
9am
mm
Dir  Spd
km/h
Gust
km/h
Spd
kts
Gust
kts
20/11:30pm 9.0 5.3 2.1 62 2.9 N 11 17 6 9 1011.1 1011.1 2.4
20/11:00pm 8.6 4.2 2.6 66 2.5 NNW 15 20 8 11 1011.5 1011.5 2.4
20/10:30pm 8.3 4.7 2.8 68 2.3 NW 11 15 6 8 1012.0 1012.0 2.4
20/10:00pm 8.6 4.6 3.0 68 2.4 NNW 13 19 7 10 1012.5 1012.5 2.4
20/09:30pm 9.9 5.2 3.4 64 2.8 N 17 22 9 12 1012.9 1012.9 2.4
20/09:00pm 9.9 5.1 4.9 71 2.2 N 19 24 10 13 1013.0 1013.0 2.4
20/08:30pm 9.8 5.9 5.4 74 2.0 NNW 15 17 8 9 1013.8 1013.8 2.4
20/08:00pm 9.4 5.5 7.0 85 1.1 NNW 17 28 9 15 1013.6 1013.6 2.4
20/07:30pm 9.5 6.7 6.9 84 1.2 NW 11 15 6 8 1014.2 1014.2 2.2
20/07:00pm 9.7 6.1 6.6 81 1.4 N 15 20 8 11 1013.4 1013.4 2.2
20/06:30pm 9.9 6.6 6.6 80 1.5 NNW 13 20 7 11 1013.4 1013.4 2.2
20/06:00pm 9.9 6.7 6.8 81 1.5 NW 13 17 7 9 1013.2 1013.2 2.2
20/05:30pm 10.2 5.8 6.7 79 1.6 N 19 30 10 16 1013.0 1013.0 2.2
20/05:00pm 10.2 6.6 6.7 79 1.6 N 15 24 8 13 1012.3 1012.3 2.2
20/04:30pm 9.9 7.6 7.3 84 1.2 NNW 9 13 5 7 1012.6 1012.6 2.2
20/04:00pm 9.8 7.2 7.6 86 1.1 NNE 11 17 6 9 1012.3 1012.3 2.2
20/03:30pm 10.1 6.2 7.2 82 1.4 NE 17 24 9 13 1012.5 1012.5 1.8
20/03:00pm 10.2 5.0 7.4 83 1.3 N 24 32 13 17 1014.5 1014.5 1.8
20/02:30pm 9.6 5.2 7.2 85 1.1 N 20 26 11 14 1015.2 1015.2 1.8
20/02:00pm 9.4 4.9 7.0 85 1.1 N 20 28 11 15 1015.7 1015.7 1.8
20/01:30pm 9.5 5.1 7.3 86 1.0 NNE 20 28 11 15 1016.6 1016.6 1.2
20/01:00pm 10.2 5.3 6.7 79 1.6 N 22 30 12 16 1018.1 1018.1 0.6
20/12:30pm 10.5 6.4 6.1 74 2.0 NNE 17 20 9 11 1018.1 1018.1 0.6
20/12:00pm 11.4 6.6 4.8 64 3.0 NNE 19 30 10 16 1019.4 1019.4 0.0
20/11:30am 11.1 6.5 5.4 68 2.6 N 19 22 10 12 1020.7 1020.7 0.0
20/11:00am 12.8 7.2 1.2 45 4.9 NNW 20 28 11 15 1021.4 1021.4 0.0
20/10:30am 13.2 7.8 1.5 45 5.0 N 19 26 10 14 1022.0 1022.0 0.0
20/10:00am 13.1 6.7 1.1 44 5.1 N 24 33 13 18 1022.1 1022.1 0.0
20/09:30am 13.2 6.9 1.5 45 5.0 NNE 24 32 13 17 1021.4 1021.4 0.0
20/09:00am 12.4 7.5 1.7 48 4.6 NE 17 26 9 14 1021.3 1021.3 0.0
20/08:30am 8.7 6.9 3.7 71 2.2 NNW 2 9 1 5 1021.5 1021.5 0.0
20/08:00am 4.4 2.8 2.6 88 0.7 CALM 0 0 0 0 1021.7 1021.7 0.0
20/07:30am 1.9 -1.3 0.9 93 0.4 W 7 9 4 5 1022.2 1022.2 0.0
20/07:00am 0.4 -3.3 -0.2 96 0.2 W 9 11 5 6 1022.0 1022.0 0.0
20/06:30am 0.4 -3.0 -0.3 95 0.2 NE 7 9 4 5 1021.8 1021.8 0.0
20/06:00am 0.7 -1.3 0.0 95 0.3 CALM 0 0 0 0 1021.9 1021.9 0.0
20/05:30am 1.1 -2.0 0.2 94 0.3 WNW 6 7 3 4 1022.0 1022.0 0.0
20/05:00am 1.7 -1.5 1.0 95 0.3 NNW 7 9 4 5 1022.0 1022.0 0.0
20/04:30am 1.3 -1.9 0.7 96 0.2 NNW 7 9 4 5 1022.3 1022.3 0.0
20/04:00am 1.3 -1.9 0.6 95 0.3 N 7 9 4 5 1022.5 1022.5 0.0
20/03:30am 2.1 0.3 1.1 93 0.4 CALM 0 2 0 1 1022.8 1022.8 0.0
20/03:00am 3.3 0.6 2.7 96 0.2 NNW 6 7 3 4 1023.3 1023.3 0.0
20/02:30am 3.2 0.5 2.8 97 0.2 NNW 6 7 3 4 1023.8 1023.8 0.0
20/02:00am 2.6 -1.2 1.9 95 0.3 NW 11 13 6 7 1024.3 1024.3 0.0
20/01:30am 3.1 -0.2 2.5 96 0.2 NW 9 11 5 6 1024.4 1024.4 0.0
20/01:00am 3.1 -0.2 2.4 95 0.3 NW 9 9 5 5 1024.8 1024.8 0.0
20/12:30am 3.1 0.1 2.2 94 0.4 SW 7 9 4 5 1025.0 1025.0 0.0
20/12:00am 3.8 2.1 2.0 88 0.7 CALM 0 6 0 3 1025.3 1025.3 0.0
 
Date/Time
CST
Temp
°C
App
Temp
°C
Dew
Point
°C
Rel
Hum
%
Delta-T
°C
Wind Press
QNH
hPa
Press
MSL
hPa
Rain since
9am
mm
Dir  Spd
km/h
Gust
km/h
Spd
kts
Gust
kts
19/11:30pm 6.9 5.7 4.6 85 1.0 CALM 0 0 0 0 1025.5 1025.5 0.0
19/11:00pm 9.4 7.2 6.3 81 1.4 SE 7 11 4 6 1026.2 1026.2 0.0
19/10:30pm 9.4 6.7 7.2 86 1.0 ESE 11 17 6 9 1026.4 1026.4 0.0
19/10:00pm 5.3 3.9 3.6 89 0.7 CALM 0 0 0 0 1026.6 1026.6 0.0
19/09:30pm 5.7 4.3 3.7 87 0.8 CALM 0 0 0 0 1026.7 1026.7 0.0
19/09:00pm 8.1 5.8 4.7 79 1.5 S 6 9 3 5 1026.9 1026.9 0.0
19/08:30pm 10.4 8.1 7.3 81 1.5 SSE 9 13 5 7 1027.0 1027.0 0.0
19/08:00pm 10.8 7.7 7.1 78 1.8 SSE 13 17 7 9 1027.0 1027.0 0.0
19/07:30pm 10.7 7.5 7.0 78 1.7 SSE 13 15 7 8 1026.9 1026.9 0.0
19/07:00pm 10.7 7.8 6.6 76 1.9 SSE 11 15 6 8 1026.7 1026.7 0.0
19/06:30pm 10.8 7.9 6.6 75 2.0 SSE 11 15 6 8 1026.7 1026.7 0.0
19/06:00pm 11.5 8.2 6.4 71 2.4 S 13 17 7 9 1026.8 1026.8 0.0
19/05:30pm 12.6 9.2 6.0 64 3.1 SSE 13 17 7 9 1026.9 1026.9 0.0
19/05:00pm 13.4 9.9 5.6 59 3.7 S 13 17 7 9 1026.8 1026.8 0.0
19/04:30pm 13.9 10.8 5.5 57 3.9 SE 11 15 6 8 1027.0 1027.0 0.0
19/04:00pm 13.9 10.8 5.5 57 4.0 SSE 11 19 6 10 1027.0 1027.0 0.0
19/03:30pm 14.0 10.4 4.9 54 4.2 SE 13 20 7 11 1027.0 1027.0 0.0
19/03:00pm 14.6 11.0 5.1 53 4.4 SE 13 19 7 10 1027.4 1027.4 0.0
19/02:30pm 14.2 10.8 4.2 51 4.6 SSE 11 17 6 9 1027.7 1027.7 0.0
19/02:00pm 13.9 9.8 4.2 52 4.4 SSE 15 20 8 11 1028.5 1028.5 0.0
19/01:30pm 14.2 10.3 3.4 48 4.8 SSE 13 19 7 10 1028.7 1028.7 0.0
19/01:00pm 13.9 9.5 2.5 46 5.0 ESE 15 22 8 12 1028.9 1028.9 0.0
19/12:30pm 14.2 10.5 4.2 51 4.6 ESE 13 19 7 10 1029.5 1029.5 0.0
19/12:00pm 14.3 11.1 5.1 54 4.3 SE 11 17 6 9 1029.9 1029.9 0.0
19/11:30am 13.8 10.6 5.2 56 4.0 SE 11 19 6 10 1030.3 1030.3 0.0
19/11:00am 13.7 10.3 5.8 59 3.7 SE 13 17 7 9 1030.6 1030.6 0.0
19/10:30am 13.0 9.7 6.4 64 3.1 SE 13 20 7 11 1030.8 1030.8 0.0
19/10:00am 12.4 10.3 8.3 76 2.0 SSE 9 17 5 9 1030.8 1030.8 0.0
19/09:30am 11.3 9.4 7.6 78 1.8 S 7 11 4 6 1030.9 1030.9 0.0
19/09:00am 9.8 7.9 6.5 80 1.5 WNW 6 7 3 4 1030.8 1030.8 0.0
19/08:30am 7.6 5.3 5.7 88 0.8 W 7 9 4 5 1030.5 1030.5 0.0
19/08:00am 5.3 2.3 4.3 93 0.4 NW 9 11 5 6 1030.1 1030.1 0.0
19/07:30am 3.4 -0.2 3.0 97 0.2 NW 11 11 6 6 1029.6 1029.6 0.0

Other Formats:

Comma delimited format used in spreadsheet applications
http://www.bom.gov.au/fwo/IDS60801/IDS60801.95664.axf

JavaScript Object Notation format (JSON) in row-major order
http://www.bom.gov.au/fwo/IDS60801/IDS60801.95664.json